createdAt,value
2022-10-08T00:00:53.746Z,1.27
2022-10-08T00:03:22.609Z,1.20
2022-10-08T00:06:03.274Z,1.13
2022-10-08T00:08:32.334Z,1.47
2022-10-08T00:11:00.841Z,1.17
2022-10-08T00:13:29.780Z,1.40
2022-10-08T00:15:58.377Z,2.00
2022-10-08T00:18:24.949Z,1.60
2022-10-08T00:20:51.973Z,1.50
2022-10-08T00:23:18.510Z,1.13
2022-10-08T00:25:45.262Z,1.10
2022-10-08T00:28:13.735Z,1.70
2022-10-08T00:30:41.565Z,1.13
2022-10-08T00:33:10.164Z,1.50
2022-10-08T00:35:38.942Z,1.13
2022-10-08T00:38:07.301Z,1.30
2022-10-08T00:40:44.691Z,1.73
2022-10-08T00:43:16.017Z,1.53
2022-10-08T00:45:44.898Z,1.60
2022-10-08T00:48:25.436Z,1.20
2022-10-08T00:50:52.218Z,1.03
2022-10-08T00:53:18.802Z,1.27
2022-10-08T00:55:45.370Z,1.33
2022-10-08T00:58:17.010Z,2.00
2022-10-08T01:00:44.229Z,1.67
2022-10-08T01:03:10.953Z,1.40
2022-10-08T01:05:54.986Z,1.43
2022-10-08T01:08:28.229Z,1.63
2022-10-08T01:11:12.548Z,1.63
2022-10-08T01:14:00.308Z,1.23
2022-10-08T01:16:51.445Z,1.30
2022-10-08T01:19:44.007Z,1.30
2022-10-08T01:22:16.285Z,1.40
2022-10-08T01:25:15.661Z,1.40
2022-10-08T01:27:50.438Z,1.27
2022-10-08T01:30:18.886Z,1.47
2022-10-08T01:32:59.680Z,1.27
2022-10-08T01:35:34.525Z,1.47
2022-10-08T01:38:06.944Z,1.40
2022-10-08T01:40:37.069Z,1.20
2022-10-08T01:43:07.133Z,1.47
2022-10-08T01:45:40.516Z,1.30
2022-10-08T01:48:14.940Z,1.50
2022-10-08T01:50:48.670Z,1.63
2022-10-08T01:53:17.329Z,1.80
2022-10-08T01:55:50.677Z,0.97
2022-10-08T01:58:31.693Z,1.63
2022-10-08T02:01:12.003Z,1.40
2022-10-08T02:03:58.570Z,1.53
2022-10-08T02:06:26.212Z,1.57
2022-10-08T02:08:53.141Z,1.30
2022-10-08T02:11:20.705Z,1.27
2022-10-08T02:13:47.345Z,1.33
2022-10-08T02:16:26.080Z,1.33
2022-10-08T02:19:00.977Z,1.43
2022-10-08T02:21:29.490Z,1.70
2022-10-08T02:24:09.658Z,1.57
2022-10-08T02:26:42.462Z,1.50
2022-10-08T02:29:20.669Z,1.23
2022-10-08T02:31:56.217Z,1.57
2022-10-08T02:34:35.093Z,1.50
2022-10-08T02:37:21.260Z,1.87
2022-10-08T02:39:53.539Z,1.53
2022-10-08T02:42:24.205Z,1.87
2022-10-08T02:44:57.561Z,1.80
2022-10-08T02:47:29.131Z,1.43
2022-10-08T02:50:07.441Z,1.30
2022-10-08T02:52:39.719Z,1.47
2022-10-08T02:55:19.158Z,1.67
2022-10-08T02:57:56.852Z,1.70
2022-10-08T03:00:24.117Z,1.60
2022-10-08T03:03:30.096Z,1.70
2022-10-08T03:05:57.698Z,1.53
2022-10-08T03:08:24.635Z,1.53
2022-10-08T03:10:51.414Z,1.30
2022-10-08T03:13:18.817Z,1.30
2022-10-08T03:15:46.992Z,1.10
2022-10-08T03:18:14.387Z,0.87
2022-10-08T03:20:49.380Z,1.67
2022-10-08T03:23:18.004Z,1.17
2022-10-08T03:25:44.908Z,1.20
2022-10-08T03:28:12.160Z,1.70
2022-10-08T03:30:38.770Z,1.20
2022-10-08T03:33:05.392Z,1.30
2022-10-08T03:35:32.094Z,1.23
2022-10-08T03:37:58.686Z,1.07
2022-10-08T03:40:25.225Z,1.40
2022-10-08T03:42:51.937Z,1.07
2022-10-08T03:45:18.660Z,1.10
2022-10-08T03:47:51.089Z,1.27
2022-10-08T03:50:17.924Z,1.37
2022-10-08T03:52:44.871Z,1.10
2022-10-08T03:55:11.660Z,1.30
2022-10-08T03:57:38.222Z,1.30
2022-10-08T04:00:05.517Z,1.00
2022-10-08T04:02:34.907Z,1.17
2022-10-08T04:05:01.624Z,1.47
2022-10-08T04:07:28.170Z,1.07
2022-10-08T04:09:54.696Z,1.00
2022-10-08T04:12:21.238Z,1.20
2022-10-08T04:14:47.766Z,1.50
2022-10-08T04:17:14.357Z,1.03
2022-10-08T04:19:40.987Z,1.00
2022-10-08T04:22:07.562Z,1.13
2022-10-08T04:24:34.106Z,1.43
2022-10-08T04:27:00.644Z,1.37
2022-10-08T04:29:27.199Z,1.10
2022-10-08T04:31:53.747Z,1.17
2022-10-08T04:34:20.286Z,1.40
2022-10-08T04:36:53.412Z,1.73
2022-10-08T04:39:19.956Z,1.23
2022-10-08T04:41:46.534Z,1.77
2022-10-08T04:44:13.078Z,1.13
2022-10-08T04:46:39.656Z,1.40
2022-10-08T04:49:06.261Z,1.40
2022-10-08T04:51:32.816Z,1.30
2022-10-08T04:53:59.432Z,1.20
2022-10-08T04:56:28.503Z,1.30
2022-10-08T04:58:55.564Z,1.60
2022-10-08T05:01:23.616Z,1.77
2022-10-08T05:03:52.735Z,1.40
2022-10-08T05:06:21.939Z,1.43
2022-10-08T05:08:48.934Z,1.30
2022-10-08T05:11:16.986Z,1.80
2022-10-08T05:13:48.597Z,1.23
2022-10-08T05:16:17.123Z,1.70
2022-10-08T05:18:44.482Z,1.80
2022-10-08T05:21:13.229Z,1.37
2022-10-08T05:23:42.486Z,1.50
2022-10-08T05:26:28.557Z,1.57
2022-10-08T05:29:07.020Z,1.20
2022-10-08T05:31:36.702Z,1.63
2022-10-08T05:34:03.283Z,1.27
2022-10-08T05:36:34.056Z,1.83
2022-10-08T05:39:02.279Z,1.40
2022-10-08T05:41:31.445Z,1.47
2022-10-08T05:43:58.818Z,1.37
2022-10-08T05:46:26.975Z,1.67
2022-10-08T05:48:55.191Z,1.30
2022-10-08T05:51:22.872Z,2.00
2022-10-08T05:53:51.014Z,1.73
2022-10-08T05:56:20.393Z,1.77
2022-10-08T05:58:47.972Z,1.63
2022-10-08T06:01:20.186Z,1.90
2022-10-08T06:03:54.882Z,1.93
2022-10-08T06:06:22.721Z,1.53
2022-10-08T06:09:01.786Z,1.73
2022-10-08T06:11:30.425Z,1.83
2022-10-08T06:13:58.345Z,1.70
2022-10-08T06:16:25.753Z,1.73
2022-10-08T06:18:52.370Z,2.30
2022-10-08T06:21:21.614Z,2.03
2022-10-08T06:23:50.537Z,3.00
2022-10-08T06:26:18.098Z,3.23
2022-10-08T06:28:45.610Z,2.97
2022-10-08T06:31:12.725Z,2.23
2022-10-08T06:33:39.477Z,2.53
2022-10-08T06:36:08.365Z,2.83
2022-10-08T06:38:34.997Z,2.33
2022-10-08T06:41:01.991Z,2.80
2022-10-08T06:43:28.559Z,3.13
2022-10-08T06:45:56.481Z,2.93
2022-10-08T06:48:23.576Z,3.73
2022-10-08T06:51:01.598Z,2.63
2022-10-08T06:53:28.432Z,3.33
2022-10-08T06:56:07.459Z,2.87
2022-10-08T06:58:37.889Z,2.90
2022-10-08T07:01:17.989Z,3.23
2022-10-08T07:03:47.990Z,3.00
2022-10-08T07:06:14.554Z,3.83
2022-10-08T07:08:41.257Z,5.83
2022-10-08T07:11:11.311Z,6.83
2022-10-08T07:13:39.041Z,3.33
2022-10-08T07:16:26.820Z,2.10
2022-10-08T07:18:55.970Z,2.20
2022-10-08T07:21:22.989Z,2.40
2022-10-08T07:23:50.672Z,1.70
2022-10-08T07:26:20.250Z,1.80
2022-10-08T07:28:52.706Z,1.80
2022-10-08T07:31:27.891Z,1.90
2022-10-08T07:33:54.841Z,1.90
2022-10-08T07:36:23.221Z,1.40
2022-10-08T07:39:00.678Z,1.48
2022-10-08T07:41:29.046Z,1.40
2022-10-08T07:44:00.533Z,1.50
2022-10-08T07:46:32.726Z,1.27
2022-10-08T07:49:01.348Z,1.27
2022-10-08T07:51:29.927Z,1.50
2022-10-08T07:54:01.567Z,1.30
2022-10-08T07:56:30.208Z,1.10
2022-10-08T07:58:57.800Z,1.40
2022-10-08T08:01:29.616Z,1.40
2022-10-08T08:03:59.558Z,1.40
2022-10-08T08:06:26.585Z,1.30
2022-10-08T08:08:53.580Z,1.10
2022-10-08T08:11:22.741Z,1.80
2022-10-08T08:13:49.497Z,1.73
2022-10-08T08:16:18.970Z,1.02
2022-10-08T08:18:48.354Z,1.40
2022-10-08T08:21:17.862Z,1.20
2022-10-08T08:23:50.127Z,1.00
2022-10-08T08:26:24.484Z,1.23
2022-10-08T08:28:59.657Z,1.27
2022-10-08T08:31:28.938Z,1.17
2022-10-08T08:34:01.081Z,1.20
2022-10-08T08:36:30.523Z,1.08
2022-10-08T08:38:57.505Z,1.35
2022-10-08T08:41:35.972Z,1.00
2022-10-08T08:44:10.216Z,1.00
2022-10-08T08:46:41.028Z,1.10
2022-10-08T08:49:21.537Z,1.30
2022-10-08T08:51:48.203Z,1.17
2022-10-08T08:54:14.868Z,1.30
2022-10-08T08:56:41.850Z,1.15
2022-10-08T08:59:23.292Z,1.27
2022-10-08T09:01:51.035Z,0.90
2022-10-08T09:04:36.160Z,1.08
2022-10-08T09:07:07.893Z,0.90
2022-10-08T09:09:42.185Z,1.07
2022-10-08T09:12:37.083Z,1.30
2022-10-08T09:15:19.243Z,0.70
2022-10-08T09:17:48.767Z,1.20
2022-10-08T09:20:17.943Z,0.80
2022-10-08T09:22:45.683Z,1.07
2022-10-08T09:25:20.759Z,0.98
2022-10-08T09:27:58.504Z,1.13
2022-10-08T09:30:25.049Z,0.70
2022-10-08T09:32:54.556Z,0.90
2022-10-08T09:35:22.500Z,1.07
2022-10-08T09:37:51.116Z,0.93
2022-10-08T09:40:26.392Z,0.90
2022-10-08T09:43:23.414Z,0.70
2022-10-08T09:45:50.314Z,1.10
2022-10-08T09:48:23.130Z,1.20
2022-10-08T09:51:07.177Z,1.17
2022-10-08T09:53:39.820Z,1.37
2022-10-08T09:56:07.888Z,0.90
2022-10-08T09:58:54.865Z,1.08
2022-10-08T10:01:21.989Z,1.30
2022-10-08T10:04:02.475Z,0.97
2022-10-08T10:06:34.890Z,1.63
2022-10-08T10:09:38.237Z,0.93
2022-10-08T10:12:26.514Z,1.00
2022-10-08T10:15:10.867Z,1.30
2022-10-08T10:17:37.478Z,0.90
2022-10-08T10:20:14.188Z,0.85
2022-10-08T10:22:58.568Z,0.90
2022-10-08T10:25:58.012Z,0.90
2022-10-08T10:28:46.603Z,1.15
2022-10-08T10:31:46.905Z,1.70
2022-10-08T10:34:15.994Z,1.50
2022-10-08T10:36:51.913Z,1.10
2022-10-08T10:39:34.076Z,0.93
2022-10-08T10:42:24.297Z,1.07
2022-10-08T10:44:57.594Z,0.90
2022-10-08T10:47:32.034Z,0.90
2022-10-08T10:50:00.776Z,1.23
2022-10-08T10:52:49.400Z,1.25
2022-10-08T10:55:18.530Z,1.00
2022-10-08T10:58:06.240Z,1.20
2022-10-08T11:00:42.670Z,1.37
2022-10-08T11:03:28.040Z,0.77
2022-10-08T11:06:32.210Z,1.17
2022-10-08T11:09:04.630Z,0.70
2022-10-08T11:11:43.146Z,0.95
2022-10-08T11:14:34.406Z,0.82
2022-10-08T11:17:22.289Z,0.80
2022-10-08T11:19:57.347Z,0.80
2022-10-08T11:22:23.905Z,0.70
2022-10-08T11:25:06.373Z,0.90
2022-10-08T11:27:37.205Z,0.80
2022-10-08T11:30:14.868Z,0.63
2022-10-08T11:32:44.632Z,0.85
2022-10-08T11:35:29.339Z,0.73
2022-10-08T11:38:04.375Z,0.68
2022-10-08T11:40:44.483Z,0.77
2022-10-08T11:43:17.658Z,0.77
2022-10-08T11:45:46.083Z,0.77
2022-10-08T11:48:33.004Z,0.77
2022-10-08T11:51:37.544Z,0.80
2022-10-08T11:54:10.076Z,0.80
2022-10-08T11:56:40.400Z,1.10
2022-10-08T11:59:33.509Z,0.80
2022-10-08T12:02:03.318Z,0.90
2022-10-08T12:04:34.845Z,1.33
2022-10-08T12:07:03.339Z,0.90
2022-10-08T12:10:02.154Z,0.82
2022-10-08T12:12:50.948Z,0.93
2022-10-08T12:15:23.690Z,0.80
2022-10-08T12:18:26.435Z,0.88
2022-10-08T12:21:16.752Z,0.85
2022-10-08T12:23:44.491Z,0.70
2022-10-08T12:26:13.120Z,0.88
2022-10-08T12:28:42.830Z,0.70
2022-10-08T12:31:18.041Z,0.98
2022-10-08T12:33:56.305Z,0.93
2022-10-08T12:37:02.012Z,0.70
2022-10-08T12:39:37.958Z,0.90
2022-10-08T12:42:14.235Z,1.10
2022-10-08T12:44:51.135Z,0.90
2022-10-08T12:47:25.030Z,0.95
2022-10-08T12:50:13.477Z,1.00
2022-10-08T12:52:40.117Z,0.90
2022-10-08T12:55:15.010Z,1.00
2022-10-08T12:57:42.538Z,0.93
2022-10-08T13:00:28.840Z,1.10
2022-10-08T13:03:01.683Z,1.10
2022-10-08T13:05:37.040Z,1.10
2022-10-08T13:08:34.705Z,1.10
2022-10-08T13:11:09.358Z,0.70
2022-10-08T13:13:39.055Z,0.80
2022-10-08T13:16:14.665Z,1.10
2022-10-08T13:18:44.486Z,0.85
2022-10-08T13:21:32.771Z,1.02
2022-10-08T13:24:01.801Z,0.93
2022-10-08T13:26:49.648Z,0.80
2022-10-08T13:29:22.547Z,1.07
2022-10-08T13:32:12.282Z,0.68
2022-10-08T13:34:54.825Z,0.68
2022-10-08T13:37:21.329Z,0.80
2022-10-08T13:39:56.744Z,0.65
2022-10-08T13:42:50.759Z,0.75
2022-10-08T13:45:20.313Z,1.08
2022-10-08T13:47:47.458Z,0.85
2022-10-08T13:50:14.726Z,0.88
2022-10-08T13:52:45.126Z,0.60
2022-10-08T13:55:31.892Z,0.77
2022-10-08T13:58:01.829Z,0.70
2022-10-08T14:00:33.599Z,0.60
2022-10-08T14:03:00.185Z,0.70
2022-10-08T14:05:29.760Z,0.70
2022-10-08T14:07:59.640Z,0.60
2022-10-08T14:10:26.917Z,0.60
2022-10-08T14:12:53.633Z,0.80
2022-10-08T14:15:20.474Z,0.77
2022-10-08T14:17:49.444Z,0.60
2022-10-08T14:20:16.606Z,0.90
2022-10-08T14:22:43.194Z,0.80
2022-10-08T14:25:18.390Z,1.00
2022-10-08T14:27:45.522Z,0.90
2022-10-08T14:30:13.330Z,0.80
2022-10-08T14:32:39.916Z,0.57
2022-10-08T14:35:06.763Z,0.73
2022-10-08T14:37:34.848Z,0.60
2022-10-08T14:40:02.114Z,0.80
2022-10-08T14:42:28.659Z,0.90
2022-10-08T14:44:55.434Z,1.00
2022-10-08T14:47:21.958Z,1.17
2022-10-08T14:49:48.484Z,0.67
2022-10-08T14:52:15.029Z,1.00
2022-10-08T14:54:41.616Z,1.00
2022-10-08T14:57:08.179Z,0.63
2022-10-08T14:59:39.778Z,0.87
2022-10-08T15:02:08.824Z,0.53
2022-10-08T15:04:35.395Z,0.60
2022-10-08T15:07:01.948Z,0.80
2022-10-08T15:09:28.613Z,0.70
2022-10-08T15:11:55.137Z,1.40
2022-10-08T15:14:21.701Z,0.90
2022-10-08T15:16:48.423Z,0.97
2022-10-08T15:19:16.240Z,0.70
2022-10-08T15:21:45.208Z,0.67
2022-10-08T15:24:11.782Z,1.03
2022-10-08T15:26:38.506Z,0.80
2022-10-08T15:29:05.126Z,0.70
2022-10-08T15:31:31.729Z,1.10
2022-10-08T15:34:01.702Z,0.70
2022-10-08T15:36:31.246Z,0.60
2022-10-08T15:39:07.486Z,1.27
2022-10-08T15:41:35.854Z,1.17
2022-10-08T15:44:10.968Z,0.70
2022-10-08T15:46:37.886Z,0.53
2022-10-08T15:49:05.176Z,0.60
2022-10-08T15:51:33.585Z,0.73
2022-10-08T15:54:00.930Z,1.30
2022-10-08T15:56:28.333Z,0.73
2022-10-08T15:58:54.974Z,0.80
2022-10-08T16:01:23.719Z,0.70
2022-10-08T16:03:52.755Z,0.80
2022-10-08T16:06:22.087Z,0.70
2022-10-08T16:08:48.997Z,0.80
2022-10-08T16:11:18.314Z,1.03
2022-10-08T16:13:47.545Z,0.60
2022-10-08T16:16:16.967Z,0.60
2022-10-08T16:18:45.293Z,0.70
2022-10-08T16:21:13.160Z,0.80
2022-10-08T16:23:40.336Z,0.60
2022-10-08T16:26:09.127Z,0.80
2022-10-08T16:28:38.392Z,0.73
2022-10-08T16:31:06.181Z,0.60
2022-10-08T16:33:33.513Z,1.17
2022-10-08T16:36:08.886Z,0.50
2022-10-08T16:38:38.529Z,0.80
2022-10-08T16:41:19.991Z,0.87
2022-10-08T16:43:49.538Z,1.00
2022-10-08T16:46:20.759Z,0.70
2022-10-08T16:49:16.438Z,0.80
2022-10-08T16:51:46.870Z,0.77
2022-10-08T16:54:16.125Z,0.80
2022-10-08T16:56:44.745Z,0.70
2022-10-08T16:59:15.344Z,0.93
2022-10-08T17:01:47.694Z,0.60
2022-10-08T17:04:16.081Z,1.07
2022-10-08T17:06:43.194Z,0.90
2022-10-08T17:09:11.462Z,0.83
2022-10-08T17:11:39.166Z,1.23
2022-10-08T17:14:07.477Z,0.80
2022-10-08T17:16:35.272Z,0.90
2022-10-08T17:19:02.413Z,1.00
2022-10-08T17:21:29.881Z,1.08
2022-10-08T17:23:59.894Z,1.85
2022-10-08T17:26:27.786Z,1.10
2022-10-08T17:28:54.987Z,1.33
2022-10-08T17:31:27.115Z,1.17
2022-10-08T17:33:53.832Z,1.63
2022-10-08T17:36:26.786Z,1.03
2022-10-08T17:38:59.543Z,1.30
2022-10-08T17:41:28.058Z,1.37
2022-10-08T17:43:56.389Z,1.17
2022-10-08T17:46:31.868Z,0.93
2022-10-08T17:48:59.060Z,0.80
2022-10-08T17:51:28.002Z,1.00
2022-10-08T17:53:56.862Z,0.80
2022-10-08T17:56:24.014Z,0.80
2022-10-08T17:58:51.021Z,0.90
2022-10-08T18:01:26.904Z,0.97
2022-10-08T18:03:56.689Z,1.03
2022-10-08T18:06:25.529Z,1.10
2022-10-08T18:09:00.113Z,1.10
2022-10-08T18:11:28.426Z,1.20
2022-10-08T18:13:55.096Z,0.87
2022-10-08T18:16:23.107Z,0.90
2022-10-08T18:18:49.716Z,1.30
2022-10-08T18:21:18.569Z,1.00
2022-10-08T18:23:48.545Z,1.00
2022-10-08T18:26:22.795Z,1.10
2022-10-08T18:28:55.003Z,0.97
2022-10-08T18:31:23.861Z,1.07
2022-10-08T18:33:55.001Z,1.20
2022-10-08T18:36:24.179Z,0.70
2022-10-08T18:39:09.892Z,1.60
2022-10-08T18:41:40.972Z,1.30
2022-10-08T18:44:14.488Z,1.37
2022-10-08T18:46:44.369Z,1.47
2022-10-08T18:49:17.130Z,1.77
2022-10-08T18:51:44.377Z,1.30
2022-10-08T18:54:11.537Z,1.07
2022-10-08T18:56:40.666Z,1.60
2022-10-08T18:59:11.505Z,1.63
2022-10-08T19:01:40.691Z,1.37
2022-10-08T19:04:11.739Z,1.20
2022-10-08T19:06:41.777Z,1.10
2022-10-08T19:09:09.244Z,1.37
2022-10-08T19:11:45.307Z,1.93
2022-10-08T19:14:14.523Z,1.97
2022-10-08T19:16:41.333Z,2.17
2022-10-08T19:19:12.364Z,1.73
2022-10-08T19:21:39.242Z,1.60
2022-10-08T19:24:08.031Z,1.93
2022-10-08T19:26:34.914Z,1.57
2022-10-08T19:29:01.698Z,1.83
2022-10-08T19:31:31.348Z,1.97
2022-10-08T19:34:06.714Z,1.30
2022-10-08T19:36:38.344Z,1.70
2022-10-08T19:39:09.464Z,1.30
2022-10-08T19:41:36.680Z,1.17
2022-10-08T19:44:04.258Z,2.27
2022-10-08T19:46:31.332Z,1.10
2022-10-08T19:49:01.453Z,1.60
2022-10-08T19:51:29.538Z,1.43
2022-10-08T19:53:57.335Z,1.63
2022-10-08T19:56:24.029Z,1.20
2022-10-08T19:58:55.286Z,1.50
2022-10-08T20:01:33.838Z,1.40
2022-10-08T20:04:03.718Z,1.40
2022-10-08T20:06:31.720Z,1.17
2022-10-08T20:09:01.357Z,1.37
2022-10-08T20:11:30.106Z,1.03
2022-10-08T20:13:57.326Z,1.00
2022-10-08T20:16:27.783Z,1.57
2022-10-08T20:19:00.193Z,1.60
2022-10-08T20:21:28.635Z,2.40
2022-10-08T20:23:55.213Z,2.80
2022-10-08T20:26:24.745Z,3.03
2022-10-08T20:28:54.507Z,3.87
2022-10-08T20:31:24.350Z,2.40
2022-10-08T20:34:10.061Z,1.80
2022-10-08T20:36:36.869Z,1.43
2022-10-08T20:39:03.727Z,1.90
2022-10-08T20:41:31.225Z,1.70
2022-10-08T20:44:02.812Z,1.67
2022-10-08T20:46:30.031Z,1.73
2022-10-08T20:48:56.899Z,1.70
2022-10-08T20:51:27.788Z,1.83
2022-10-08T20:53:55.497Z,1.60
2022-10-08T20:56:23.268Z,1.90
2022-10-08T20:58:50.386Z,1.27
2022-10-08T21:01:20.182Z,1.53
2022-10-08T21:03:47.342Z,1.30
2022-10-08T21:06:16.881Z,1.30
2022-10-08T21:08:45.585Z,1.47
2022-10-08T21:11:18.124Z,1.63
2022-10-08T21:13:45.252Z,1.53
2022-10-08T21:16:20.210Z,1.47
2022-10-08T21:18:51.708Z,1.40
2022-10-08T21:21:19.409Z,1.40
2022-10-08T21:23:47.371Z,1.67
2022-10-08T21:26:22.381Z,1.80
2022-10-08T21:28:51.100Z,1.27
2022-10-08T21:31:19.518Z,1.20
2022-10-08T21:33:48.977Z,1.10
2022-10-08T21:36:24.901Z,1.77
2022-10-08T21:38:51.661Z,1.27
2022-10-08T21:41:20.158Z,1.83
2022-10-08T21:43:52.536Z,1.50
2022-10-08T21:46:24.614Z,1.00
2022-10-08T21:48:57.354Z,1.47
2022-10-08T21:51:24.652Z,1.47
2022-10-08T21:53:57.712Z,1.97
2022-10-08T21:56:27.418Z,2.00
2022-10-08T21:58:55.998Z,1.50
2022-10-08T22:01:36.746Z,2.00
2022-10-08T22:04:15.126Z,1.53
2022-10-08T22:06:44.444Z,1.50
2022-10-08T22:09:14.112Z,1.43
2022-10-08T22:11:41.505Z,1.43
2022-10-08T22:14:08.645Z,1.53
2022-10-08T22:16:35.468Z,1.37
2022-10-08T22:19:02.076Z,1.67
2022-10-08T22:21:28.694Z,1.83
2022-10-08T22:23:55.552Z,1.33
2022-10-08T22:26:27.716Z,1.63
2022-10-08T22:28:54.364Z,1.77
2022-10-08T22:31:21.399Z,2.10
2022-10-08T22:33:48.732Z,2.43
2022-10-08T22:36:21.940Z,1.43
2022-10-08T22:38:49.335Z,1.60
2022-10-08T22:41:19.201Z,1.60
2022-10-08T22:43:46.385Z,1.40
2022-10-08T22:46:18.811Z,1.53
2022-10-08T22:48:46.011Z,1.50
2022-10-08T22:51:15.007Z,1.60
2022-10-08T22:53:41.958Z,1.47
2022-10-08T22:56:12.654Z,1.50
2022-10-08T22:58:39.637Z,1.37
2022-10-08T23:01:08.826Z,1.50
2022-10-08T23:03:36.564Z,1.50
2022-10-08T23:06:27.352Z,1.50
2022-10-08T23:09:06.397Z,1.10
2022-10-08T23:11:34.066Z,1.70
2022-10-08T23:14:01.544Z,1.47
2022-10-08T23:16:29.950Z,1.63
2022-10-08T23:18:59.237Z,1.40
2022-10-08T23:21:26.346Z,1.20
2022-10-08T23:23:53.941Z,1.30
2022-10-08T23:26:21.403Z,1.33
2022-10-08T23:28:52.972Z,1.30
2022-10-08T23:31:26.468Z,1.17
2022-10-08T23:33:54.213Z,0.93
2022-10-08T23:36:27.596Z,1.27
2022-10-08T23:38:55.480Z,1.40
2022-10-08T23:41:22.729Z,1.63
2022-10-08T23:43:50.542Z,1.37
2022-10-08T23:46:20.109Z,0.93
2022-10-08T23:48:47.130Z,1.23
2022-10-08T23:51:15.087Z,1.10
2022-10-08T23:53:42.889Z,1.30
2022-10-08T23:56:10.638Z,1.17
2022-10-08T23:58:37.689Z,1.90
